Terminal Aerodrome Forecast
Issued by NWS

Home | Current Version | Previous Version | Text Only | Print | Product List | Glossary On
Versions: 1 2 3 4 5 6 7 8 9 10 11 12 13 14 15 16 17 18 19 20 21 22 23 24 25 26 27 28 29
000
FTUS44 KLZK 181132
TAFLIT
TAF
KLIT 181132Z 1812/1912 24005KT P6SM OVC012
     FM181500 24005KT P6SM BKN015
     FM181800 22005KT P6SM BKN250
     FM190300 20004KT P6SM SCT020 BKN060
     FM190900 22004KT 5SM BR VCSH SCT007 OVC015=

USA.gov is the U.S. government's official web portal to all federal, state and local government web resources and services.